Aeroporto :
LOGIN :

Iscrizione | Disclaimer

   EN    FR    IT 

 










Sommario :    VFR   VFR Marginale   IFR   IFR Intensivo   IFR Molto Intensivo
Visibilità : 
Base nubi : 
>= 8 km
>= 3000ft
5 / 8 km
1000 / 3000 ft
1500m / 5 km
500 / 1000 ft
800 / 1500m
200 / 500 ft
< 800m
< 200 ft
Simboli :   Temporali  Nebbia  Neve Forte  Precipitazioni Forti  Vento > 20 kt
SIGMETs :   Varie  Temporali  Ghiacco  Turbolenza  Onda orograficha  Ceneri Vulcaniche






- Altitudine del aeroporto : 74 ft
- Codice IATA : LRH


LFBH - La Rochelle Ile de Ré

ULTIMO METAR :
  • 220000Z AUTO 21017KT 4800 -RA BR OVC017 13/12 Q1010 TEMPO 22020G35KT 2000 RA BKN004

METARs OBSOLETI :
  • 212330Z AUTO 21016KT 7000 -RA OVC016 12/12 Q1010 TEMPO 22020G35KT 2000 RA BKN004
  • 212300Z AUTO 21016KT 6000 -RA OVC012/// ///TCU 12/12 Q1011 TEMPO 22020G35KT 2000 RA BKN004
  • 212230Z AUTO 21016KT 5000 RA BR OVC006/// ///TCU 12/12 Q1011 TEMPO 22020G35KT 2000 RA BKN004
  • 212200Z AUTO 21017KT 4200 -RA BR OVC005/// ///TCU 12/12 Q1012 TEMPO 22020G35KT 2000 RA BKN004
  • 212130Z AUTO 22017KT 4600 RA BR OVC004/// ///TCU 12/12 Q1013 TEMPO 22020G35KT 2000 RA BKN004
  • 212100Z AUTO 22015KT 5000 -RA BR OVC004 13/12 Q1013 TEMPO 22020G35KT 2000 RA
  • 212030Z AUTO 22014KT 4500 -RA BR OVC004 12/12 Q1014 TEMPO 22020G35KT 2000 RA
  • 212000Z AUTO 22014KT 4500 -RA BR OVC005/// ///TCU 12/12 Q1014 TEMPO 22020G35KT 2000 RA BKN004
  • 211930Z AUTO 22015KT 4400 -RA BR OVC005 12/12 Q1014 TEMPO 22020G35KT 2000 RA

TAF TAF LFBH
Valido dal 22 a 00 ore il 23 a 00 ore UTC


212300Z 2200/2224 22015G30KT 9999 -RA BKN012
TEMPO 2200/2213 22020G35KT 2000 RA BKN004
TEMPO 2209/2213 22022G52KT
BECMG 2210/2212 BKN016
TEMPO 2213/2224 26024G42KT SHRA SCT020CB
ATIS : +33 5 46 00 13 92



MetMap, La meteo Aeronautica in un colpo d'occhio ! - Copyright ORBIFLY Dicembre 2007 - Disclaimer

ORBIFLY MET'MAP TEAM :

Programmazione e sviluppo : Alexandra Zaïnal
Concezione : Baudouin d'Aumeries
Supporto tecnico e logistico : Manuel Goepfert
Aiuto : Marc-Olivier Méhu
Aiuto per la traduzione : Arnaldo La Scala




FONTI E CREDITI :

   NOAA